createdAt,value
2023-04-09T00:01:09.740Z,23.20
2023-04-09T00:03:37.355Z,21.23
2023-04-09T00:06:05.023Z,22.67
2023-04-09T00:08:31.576Z,22.13
2023-04-09T00:10:58.946Z,20.45
2023-04-09T00:13:38.493Z,19.67
2023-04-09T00:16:06.106Z,22.27
2023-04-09T00:18:32.486Z,19.73
2023-04-09T00:20:58.761Z,22.05
2023-04-09T00:23:25.083Z,22.30
2023-04-09T00:25:51.408Z,21.13
2023-04-09T00:28:17.710Z,20.60
2023-04-09T00:30:44.002Z,25.42
2023-04-09T00:33:10.264Z,24.15
2023-04-09T00:35:36.633Z,21.55
2023-04-09T00:38:02.949Z,21.87
2023-04-09T00:40:29.274Z,27.73
2023-04-09T00:42:55.562Z,25.15
2023-04-09T00:45:21.944Z,20.00
2023-04-09T00:47:48.483Z,21.10
2023-04-09T00:50:15.792Z,24.50
2023-04-09T00:52:42.754Z,25.98
2023-04-09T00:55:10.015Z,24.42
2023-04-09T00:57:36.366Z,17.80
2023-04-09T01:00:02.924Z,27.58
2023-04-09T01:02:29.714Z,26.17
2023-04-09T01:04:56.395Z,26.80
2023-04-09T01:07:37.815Z,25.30
2023-04-09T01:10:42.940Z,29.08
2023-04-09T01:13:15.870Z,29.23
2023-04-09T01:15:54.052Z,24.00
2023-04-09T01:18:30.806Z,28.75
2023-04-09T01:21:02.193Z,31.30
2023-04-09T01:23:50.901Z,27.17
2023-04-09T01:26:28.064Z,23.77
2023-04-09T01:28:56.928Z,25.53
2023-04-09T01:31:36.562Z,29.42
2023-04-09T01:34:04.853Z,29.05
2023-04-09T01:36:33.154Z,31.50
2023-04-09T01:39:01.850Z,37.65
2023-04-09T01:41:30.797Z,32.00
2023-04-09T01:43:58.418Z,28.65
2023-04-09T01:46:25.368Z,30.50
2023-04-09T01:48:52.212Z,34.55
2023-04-09T01:51:19.055Z,37.13
2023-04-09T01:53:45.499Z,34.87
2023-04-09T01:56:12.141Z,37.80
2023-04-09T01:58:38.449Z,30.75
2023-04-09T02:01:20.942Z,35.13
2023-04-09T02:03:53.252Z,39.08
2023-04-09T02:06:41.567Z,39.00
2023-04-09T02:09:09.277Z,44.47
2023-04-09T02:11:40.307Z,41.35
2023-04-09T02:14:07.681Z,36.30
2023-04-09T02:16:34.084Z,35.95
2023-04-09T02:19:00.487Z,36.47
2023-04-09T02:21:27.471Z,37.97
2023-04-09T02:23:54.401Z,38.47
2023-04-09T02:26:20.837Z,37.47
2023-04-09T02:28:47.162Z,36.53
2023-04-09T02:31:13.715Z,30.53
2023-04-09T02:33:40.093Z,39.38
2023-04-09T02:36:06.833Z,33.38
2023-04-09T02:38:33.168Z,34.55
2023-04-09T02:40:59.485Z,35.83
2023-04-09T02:43:25.826Z,32.30
2023-04-09T02:45:52.137Z,37.10
2023-04-09T02:48:18.545Z,33.00
2023-04-09T02:50:44.864Z,36.17
2023-04-09T02:53:11.216Z,32.92
2023-04-09T02:55:37.541Z,37.03
2023-04-09T02:58:03.871Z,32.30
2023-04-09T03:00:30.247Z,35.30
2023-04-09T03:02:56.706Z,33.13
2023-04-09T03:05:23.322Z,37.10
2023-04-09T03:07:49.685Z,33.33
2023-04-09T03:10:16.099Z,35.67
2023-04-09T03:12:43.202Z,40.00
2023-04-09T03:15:10.417Z,33.40
2023-04-09T03:17:36.914Z,37.00
2023-04-09T03:20:03.510Z,35.23
2023-04-09T03:22:29.827Z,34.53
2023-04-09T03:24:56.114Z,38.85
2023-04-09T03:27:22.495Z,32.72
2023-04-09T03:29:48.807Z,36.30
2023-04-09T03:32:16.769Z,36.23
2023-04-09T03:34:44.133Z,35.13
2023-04-09T03:37:10.454Z,30.67
2023-04-09T03:39:36.756Z,36.60
2023-04-09T03:42:03.106Z,37.55
2023-04-09T03:44:29.457Z,33.83
2023-04-09T03:46:55.930Z,37.83
2023-04-09T03:49:22.282Z,38.70
2023-04-09T03:51:48.652Z,36.20
2023-04-09T03:54:15.977Z,35.40
2023-04-09T03:56:42.287Z,33.83
2023-04-09T03:59:08.854Z,39.70
2023-04-09T04:01:35.357Z,34.67
2023-04-09T04:04:02.074Z,31.67
2023-04-09T04:06:28.507Z,37.40
2023-04-09T04:08:55.033Z,33.13
2023-04-09T04:11:21.442Z,38.38
2023-04-09T04:13:47.712Z,35.53
2023-04-09T04:16:14.146Z,36.45
2023-04-09T04:18:40.458Z,33.60
2023-04-09T04:21:13.237Z,37.43
2023-04-09T04:23:39.520Z,35.75
2023-04-09T04:26:09.702Z,35.00
2023-04-09T04:28:36.856Z,38.95
2023-04-09T04:31:07.035Z,35.72
2023-04-09T04:33:33.308Z,31.03
2023-04-09T04:36:11.003Z,33.75
2023-04-09T04:38:38.543Z,32.50
2023-04-09T04:41:05.418Z,32.85
2023-04-09T04:43:31.846Z,31.98
2023-04-09T04:45:58.490Z,35.37
2023-04-09T04:48:24.938Z,31.90
2023-04-09T04:50:58.537Z,31.73
2023-04-09T04:53:25.108Z,36.08
2023-04-09T04:55:51.528Z,30.95
2023-04-09T04:58:17.859Z,34.30
2023-04-09T05:00:44.498Z,33.92
2023-04-09T05:03:11.077Z,34.63
2023-04-09T05:05:37.582Z,34.67
2023-04-09T05:08:04.171Z,35.47
2023-04-09T05:10:30.493Z,29.27
2023-04-09T05:12:56.813Z,34.60
2023-04-09T05:15:23.169Z,33.47
2023-04-09T05:17:49.610Z,30.23
2023-04-09T05:20:15.913Z,35.85
2023-04-09T05:22:42.238Z,29.40
2023-04-09T05:25:08.684Z,32.15
2023-04-09T05:27:34.958Z,34.60
2023-04-09T05:30:01.493Z,31.73
2023-04-09T05:32:27.907Z,31.38
2023-04-09T05:34:54.213Z,34.43
2023-04-09T05:37:20.504Z,34.65
2023-04-09T05:39:46.800Z,30.45
2023-04-09T05:42:13.116Z,31.40
2023-04-09T05:44:39.427Z,34.85
2023-04-09T05:47:05.748Z,30.77
2023-04-09T05:49:32.085Z,36.60
2023-04-09T05:51:58.422Z,32.92
2023-04-09T05:54:24.725Z,31.15
2023-04-09T05:56:51.039Z,33.35
2023-04-09T05:59:17.375Z,33.13
2023-04-09T06:01:43.768Z,34.65
2023-04-09T06:04:10.657Z,33.13
2023-04-09T06:06:38.576Z,31.52
2023-04-09T06:09:05.195Z,29.63
2023-04-09T06:11:32.264Z,30.37
2023-04-09T06:13:58.567Z,29.35
2023-04-09T06:16:24.980Z,28.23
2023-04-09T06:18:51.390Z,32.40
2023-04-09T06:21:17.679Z,31.65
2023-04-09T06:23:44.028Z,31.77
2023-04-09T06:26:10.317Z,34.08
2023-04-09T06:28:36.655Z,28.58
2023-04-09T06:31:03.021Z,29.20
2023-04-09T06:33:29.493Z,28.75
2023-04-09T06:35:55.876Z,27.17
2023-04-09T06:38:22.214Z,33.42
2023-04-09T06:40:48.499Z,31.63
2023-04-09T06:43:14.815Z,33.38
2023-04-09T06:45:41.252Z,31.85
2023-04-09T06:48:07.571Z,29.33
2023-04-09T06:50:33.860Z,36.05
2023-04-09T06:53:00.162Z,30.48
2023-04-09T06:55:26.511Z,33.33
2023-04-09T06:57:52.832Z,33.10
2023-04-09T07:00:19.467Z,37.23
2023-04-09T07:02:46.222Z,30.48
2023-04-09T07:05:13.066Z,33.88
2023-04-09T07:07:39.475Z,33.80
2023-04-09T07:10:06.564Z,36.08
2023-04-09T07:12:34.232Z,35.93
2023-04-09T07:15:02.244Z,36.17
2023-04-09T07:17:29.286Z,34.50
2023-04-09T07:19:55.750Z,38.55
2023-04-09T07:22:23.074Z,36.15
2023-04-09T07:24:50.308Z,35.33
2023-04-09T07:27:16.959Z,35.13
2023-04-09T07:29:44.447Z,37.53
2023-04-09T07:32:10.810Z,39.58
2023-04-09T07:34:37.184Z,41.03
2023-04-09T07:37:03.534Z,39.30
2023-04-09T07:39:30.184Z,35.78
2023-04-09T07:41:56.567Z,41.08
2023-04-09T07:44:23.011Z,43.35
2023-04-09T07:46:52.544Z,39.95
2023-04-09T07:49:18.936Z,42.07
2023-04-09T07:51:45.275Z,39.95
2023-04-09T07:54:11.665Z,41.70
2023-04-09T07:56:37.954Z,42.20
2023-04-09T07:59:04.271Z,36.90
2023-04-09T08:01:30.602Z,37.17
2023-04-09T08:03:57.160Z,38.83
2023-04-09T08:06:23.789Z,39.25
2023-04-09T08:08:50.104Z,42.17
2023-04-09T08:11:16.480Z,37.50
2023-04-09T08:13:42.811Z,38.13
2023-04-09T08:16:09.260Z,37.95
2023-04-09T08:18:35.746Z,40.72
2023-04-09T08:21:04.999Z,41.65
2023-04-09T08:23:31.448Z,39.00
2023-04-09T08:25:57.716Z,34.83
2023-04-09T08:28:24.162Z,36.72
2023-04-09T08:30:50.576Z,34.85
2023-04-09T08:33:17.064Z,39.13
2023-04-09T08:35:43.504Z,34.92
2023-04-09T08:38:09.857Z,31.93
2023-04-09T08:40:36.566Z,34.58
2023-04-09T08:43:06.291Z,39.17
2023-04-09T08:45:32.968Z,37.15
2023-04-09T08:48:01.958Z,33.67
2023-04-09T08:50:28.549Z,34.77
2023-04-09T08:52:56.932Z,32.50
2023-04-09T08:55:23.332Z,34.47
2023-04-09T08:57:49.662Z,33.95
2023-04-09T09:00:15.996Z,28.05
2023-04-09T09:03:11.089Z,34.77
2023-04-09T09:05:38.663Z,32.78
2023-04-09T09:08:06.645Z,32.10
2023-04-09T09:10:43.808Z,31.65
2023-04-09T09:13:27.302Z,34.30
2023-04-09T09:16:11.552Z,36.77
2023-04-09T09:18:43.011Z,32.03
2023-04-09T09:21:14.223Z,31.80
2023-04-09T09:23:40.562Z,28.67
2023-04-09T09:26:17.087Z,29.02
2023-04-09T09:28:44.281Z,31.20
2023-04-09T09:31:12.904Z,27.40
2023-04-09T09:33:39.827Z,32.08
2023-04-09T09:36:06.290Z,29.17
2023-04-09T09:38:32.645Z,32.13
2023-04-09T09:41:00.848Z,26.60
2023-04-09T09:43:40.659Z,29.35
2023-04-09T09:46:07.248Z,28.17
2023-04-09T09:48:33.632Z,29.27
2023-04-09T09:51:02.764Z,33.28
2023-04-09T09:53:31.030Z,30.80
2023-04-09T09:55:59.880Z,31.83
2023-04-09T09:58:34.988Z,30.45
2023-04-09T10:01:02.421Z,30.13
2023-04-09T10:03:31.799Z,33.47
2023-04-09T10:05:58.940Z,33.40
2023-04-09T10:08:25.843Z,32.30
2023-04-09T10:10:52.576Z,31.75
2023-04-09T10:13:24.835Z,33.05
2023-04-09T10:15:51.638Z,31.83
2023-04-09T10:18:18.565Z,33.37
2023-04-09T10:21:01.500Z,33.03
2023-04-09T10:23:38.485Z,31.13
2023-04-09T10:26:05.437Z,30.17
2023-04-09T10:28:32.121Z,34.15
2023-04-09T10:30:59.126Z,31.43
2023-04-09T10:33:27.673Z,31.10
2023-04-09T10:35:55.622Z,34.30
2023-04-09T10:38:38.925Z,33.03
2023-04-09T10:41:15.560Z,33.13
2023-04-09T10:43:42.998Z,35.57
2023-04-09T10:46:29.352Z,32.22
2023-04-09T10:49:18.688Z,32.33
2023-04-09T10:51:49.235Z,30.20
2023-04-09T10:54:33.963Z,30.52
2023-04-09T10:57:23.680Z,35.77
2023-04-09T10:59:51.812Z,29.63
2023-04-09T11:02:39.592Z,32.88
2023-04-09T11:05:26.266Z,30.75
2023-04-09T11:08:09.930Z,32.13
2023-04-09T11:10:37.991Z,30.23
2023-04-09T11:13:04.714Z,31.17
2023-04-09T11:15:34.215Z,29.58
2023-04-09T11:18:00.903Z,27.00
2023-04-09T11:20:27.741Z,26.73
2023-04-09T11:22:55.593Z,28.80
2023-04-09T11:25:27.019Z,31.35
2023-04-09T11:27:54.007Z,28.90
2023-04-09T11:30:20.612Z,28.67
2023-04-09T11:32:50.317Z,28.63
2023-04-09T11:35:18.971Z,29.37
2023-04-09T11:37:46.236Z,26.52
2023-04-09T11:40:17.795Z,24.77
2023-04-09T11:42:45.556Z,26.67
2023-04-09T11:45:13.160Z,26.73
2023-04-09T11:47:40.513Z,24.70
2023-04-09T11:50:08.440Z,22.30
2023-04-09T11:52:35.333Z,25.63
2023-04-09T11:55:05.585Z,22.27
2023-04-09T11:57:42.044Z,25.08
2023-04-09T12:00:17.684Z,24.23
2023-04-09T12:02:48.944Z,27.63
2023-04-09T12:05:27.619Z,23.77
2023-04-09T12:07:59.016Z,22.95
2023-04-09T12:10:30.384Z,24.38
2023-04-09T12:13:02.862Z,22.97
2023-04-09T12:15:32.642Z,21.88
2023-04-09T12:17:59.501Z,23.88
2023-04-09T12:20:58.208Z,25.92
2023-04-09T12:23:24.481Z,24.13
2023-04-09T12:25:50.816Z,23.13
2023-04-09T12:28:17.739Z,19.80
2023-04-09T12:30:44.256Z,21.52
2023-04-09T12:33:11.513Z,22.35
2023-04-09T12:35:38.622Z,19.48
2023-04-09T12:38:05.372Z,21.53
2023-04-09T12:40:31.802Z,21.35
2023-04-09T12:42:58.144Z,19.83
2023-04-09T12:45:24.495Z,19.85
2023-04-09T12:47:50.842Z,17.05
2023-04-09T12:50:17.174Z,16.33
2023-04-09T12:52:44.440Z,18.17
2023-04-09T12:55:11.773Z,18.25
2023-04-09T12:57:39.648Z,16.45
2023-04-09T13:00:07.650Z,16.42
2023-04-09T13:02:34.772Z,15.83
2023-04-09T13:05:01.745Z,15.48
2023-04-09T13:07:28.211Z,16.98
2023-04-09T13:09:55.305Z,14.38
2023-04-09T13:12:21.809Z,13.50
2023-04-09T13:14:48.968Z,14.37
2023-04-09T13:17:16.345Z,14.00
2023-04-09T13:19:43.004Z,14.63
2023-04-09T13:22:09.784Z,12.43
2023-04-09T13:24:36.279Z,12.10
2023-04-09T13:27:06.586Z,12.50
2023-04-09T13:29:33.074Z,13.38
2023-04-09T13:31:59.670Z,12.23
2023-04-09T13:34:26.010Z,13.10
2023-04-09T13:36:52.358Z,12.80
2023-04-09T13:39:19.339Z,14.97
2023-04-09T13:41:45.833Z,17.75
2023-04-09T13:44:12.251Z,15.52
2023-04-09T13:46:38.797Z,13.40
2023-04-09T13:49:05.260Z,17.73
2023-04-09T13:51:31.673Z,12.90
2023-04-09T13:53:58.024Z,14.13
2023-04-09T13:56:24.378Z,14.88
2023-04-09T13:58:50.816Z,14.18
2023-04-09T14:01:17.411Z,12.18
2023-04-09T14:03:43.853Z,11.37
2023-04-09T14:06:10.331Z,13.75
2023-04-09T14:08:36.867Z,13.77
2023-04-09T14:11:03.501Z,14.27
2023-04-09T14:13:30.100Z,12.65
2023-04-09T14:15:58.609Z,11.17
2023-04-09T14:18:26.237Z,11.70
2023-04-09T14:20:52.616Z,11.32
2023-04-09T14:23:18.980Z,13.77
2023-04-09T14:25:45.415Z,15.10
2023-04-09T14:28:11.782Z,11.47
2023-04-09T14:30:38.161Z,13.55
2023-04-09T14:33:04.600Z,14.65
2023-04-09T14:35:31.048Z,12.90
2023-04-09T14:37:57.442Z,14.35
2023-04-09T14:40:23.982Z,12.07
2023-04-09T14:42:50.393Z,15.27
2023-04-09T14:45:16.758Z,15.23
2023-04-09T14:47:43.181Z,12.32
2023-04-09T14:50:09.867Z,11.07
2023-04-09T14:52:36.271Z,12.83
2023-04-09T14:55:02.652Z,13.35
2023-04-09T14:57:28.978Z,14.10
2023-04-09T14:59:55.250Z,11.68
2023-04-09T15:02:21.731Z,13.32
2023-04-09T15:04:48.217Z,12.03
2023-04-09T15:07:14.588Z,13.98
2023-04-09T15:09:40.952Z,13.70
2023-04-09T15:12:07.316Z,14.05
2023-04-09T15:14:33.698Z,14.07
2023-04-09T15:16:59.990Z,13.10
2023-04-09T15:19:26.333Z,16.80
2023-04-09T15:21:52.633Z,15.90
2023-04-09T15:24:18.977Z,13.13
2023-04-09T15:26:45.295Z,13.20
2023-04-09T15:29:11.631Z,13.13
2023-04-09T15:31:40.869Z,13.02
2023-04-09T15:34:08.164Z,12.95
2023-04-09T15:36:34.493Z,13.98
2023-04-09T15:39:02.822Z,12.93
2023-04-09T15:41:29.129Z,14.13
2023-04-09T15:43:55.451Z,12.80
2023-04-09T15:46:21.900Z,11.50
2023-04-09T15:48:48.303Z,13.77
2023-04-09T15:51:14.629Z,12.75
2023-04-09T15:53:40.919Z,13.37
2023-04-09T15:56:07.474Z,13.05
2023-04-09T15:58:33.880Z,19.13
2023-04-09T16:01:00.217Z,11.45
2023-04-09T16:03:26.576Z,13.80
2023-04-09T16:05:52.893Z,17.93
2023-04-09T16:08:19.270Z,17.70
2023-04-09T16:10:45.575Z,12.85
2023-04-09T16:13:11.837Z,13.20
2023-04-09T16:15:38.377Z,14.35
2023-04-09T16:18:04.705Z,10.87
2023-04-09T16:20:31.093Z,19.27
2023-04-09T16:22:57.412Z,15.68
2023-04-09T16:25:23.796Z,12.82
2023-04-09T16:27:50.158Z,14.23
2023-04-09T16:30:16.482Z,13.07
2023-04-09T16:32:42.795Z,16.98
2023-04-09T16:35:09.180Z,15.32
2023-04-09T16:37:35.455Z,14.68
2023-04-09T16:40:01.992Z,35.13
2023-04-09T16:42:28.320Z,14.77
2023-04-09T16:44:54.646Z,15.23
2023-04-09T16:47:21.107Z,14.13
2023-04-09T16:49:47.478Z,14.05
2023-04-09T16:52:13.866Z,14.05
2023-04-09T16:54:40.189Z,16.10
2023-04-09T16:57:06.580Z,14.55
2023-04-09T16:59:33.012Z,14.70
2023-04-09T17:01:59.510Z,13.70
2023-04-09T17:04:26.922Z,12.73
2023-04-09T17:06:53.425Z,13.30
2023-04-09T17:09:19.750Z,15.40
2023-04-09T17:11:46.207Z,15.05
2023-04-09T17:14:12.636Z,12.55
2023-04-09T17:16:39.353Z,11.18
2023-04-09T17:19:05.725Z,12.83
2023-04-09T17:21:32.006Z,15.95
2023-04-09T17:23:58.283Z,16.23
2023-04-09T17:26:24.656Z,16.02
2023-04-09T17:28:51.230Z,19.40
2023-04-09T17:31:17.715Z,15.33
2023-04-09T17:33:44.667Z,13.95
2023-04-09T17:36:10.951Z,13.75
2023-04-09T17:38:37.328Z,14.88
2023-04-09T17:41:06.403Z,22.40
2023-04-09T17:43:33.843Z,13.33
2023-04-09T17:46:00.341Z,13.02
2023-04-09T17:48:26.685Z,15.02
2023-04-09T17:50:53.022Z,12.13
2023-04-09T17:53:19.345Z,15.80
2023-04-09T17:55:47.424Z,13.63
2023-04-09T17:58:14.127Z,16.15
2023-04-09T18:00:40.401Z,13.35
2023-04-09T18:03:06.853Z,12.43
2023-04-09T18:05:34.192Z,14.57
2023-04-09T18:08:00.684Z,13.43
2023-04-09T18:10:27.007Z,13.13
2023-04-09T18:12:53.364Z,11.68
2023-04-09T18:15:19.736Z,14.05
2023-04-09T18:17:46.142Z,13.27
2023-04-09T18:20:12.761Z,12.50
2023-04-09T18:22:39.116Z,12.63
2023-04-09T18:25:05.841Z,14.43
2023-04-09T18:27:32.145Z,12.20
2023-04-09T18:29:58.453Z,14.70
2023-04-09T18:32:25.119Z,12.63
2023-04-09T18:34:51.622Z,13.43
2023-04-09T18:37:18.608Z,13.98
2023-04-09T18:39:45.384Z,14.02
2023-04-09T18:42:12.308Z,11.70
2023-04-09T18:44:38.773Z,14.67
2023-04-09T18:47:06.056Z,12.68
2023-04-09T18:49:33.292Z,12.48
2023-04-09T18:51:59.587Z,12.98
2023-04-09T18:54:26.175Z,13.50
2023-04-09T18:56:52.471Z,16.40
2023-04-09T18:59:18.788Z,12.82
2023-04-09T19:01:45.119Z,11.32
2023-04-09T19:04:11.505Z,12.00
2023-04-09T19:06:37.836Z,19.42
2023-04-09T19:09:04.188Z,15.50
2023-04-09T19:11:30.688Z,16.85
2023-04-09T19:13:57.114Z,13.95
2023-04-09T19:16:23.456Z,13.38
2023-04-09T19:18:49.884Z,11.52
2023-04-09T19:21:16.287Z,15.30
2023-04-09T19:23:42.592Z,15.55
2023-04-09T19:26:09.207Z,13.88
2023-04-09T19:28:35.544Z,14.52
2023-04-09T19:31:04.860Z,12.63
2023-04-09T19:33:31.161Z,13.67
2023-04-09T19:35:57.506Z,12.57
2023-04-09T19:38:23.863Z,12.93
2023-04-09T19:40:50.218Z,13.90
2023-04-09T19:43:16.595Z,12.95
2023-04-09T19:45:42.964Z,12.23
2023-04-09T19:48:09.691Z,13.77
2023-04-09T19:50:37.098Z,14.15
2023-04-09T19:53:04.309Z,11.35
2023-04-09T19:55:30.647Z,11.48
2023-04-09T19:57:56.974Z,12.63
2023-04-09T20:00:23.294Z,14.55
2023-04-09T20:02:50.172Z,13.27
2023-04-09T20:05:16.935Z,12.00
2023-04-09T20:07:43.714Z,14.02
2023-04-09T20:10:10.228Z,15.37
2023-04-09T20:12:36.539Z,13.48
2023-04-09T20:15:02.890Z,13.35
2023-04-09T20:17:29.206Z,12.63
2023-04-09T20:19:55.501Z,13.63
2023-04-09T20:22:21.762Z,14.80
2023-04-09T20:24:48.774Z,12.50
2023-04-09T20:27:15.164Z,12.27
2023-04-09T20:29:41.573Z,12.45
2023-04-09T20:32:08.101Z,11.73
2023-04-09T20:34:34.483Z,13.23
2023-04-09T20:37:00.814Z,13.85
2023-04-09T20:39:27.190Z,13.95
2023-04-09T20:41:54.147Z,13.48
2023-04-09T20:44:20.582Z,13.18
2023-04-09T20:46:46.939Z,13.73
2023-04-09T20:49:13.262Z,14.20
2023-04-09T20:51:39.524Z,12.27
2023-04-09T20:54:05.936Z,14.07
2023-04-09T20:56:32.701Z,12.93
2023-04-09T20:58:58.997Z,13.80
2023-04-09T21:01:25.746Z,14.38
2023-04-09T21:03:52.282Z,16.00
2023-04-09T21:06:18.826Z,13.05
2023-04-09T21:08:45.305Z,13.68
2023-04-09T21:11:12.280Z,14.13
2023-04-09T21:13:53.011Z,14.93
2023-04-09T21:16:20.845Z,14.57
2023-04-09T21:18:47.188Z,12.38
2023-04-09T21:21:13.558Z,13.73
2023-04-09T21:23:39.826Z,13.83
2023-04-09T21:26:06.786Z,13.57
2023-04-09T21:28:33.106Z,13.57
2023-04-09T21:30:59.813Z,13.73
2023-04-09T21:33:27.909Z,13.15
2023-04-09T21:35:55.645Z,14.83
2023-04-09T21:38:22.020Z,13.40
2023-04-09T21:40:48.321Z,16.00
2023-04-09T21:43:14.615Z,12.95
2023-04-09T21:45:40.998Z,13.80
2023-04-09T21:48:07.358Z,12.63
2023-04-09T21:50:33.657Z,14.85
2023-04-09T21:52:59.977Z,12.38
2023-04-09T21:55:26.305Z,13.00
2023-04-09T21:57:52.586Z,12.30
2023-04-09T22:00:18.889Z,16.53
2023-04-09T22:02:45.437Z,13.35
2023-04-09T22:05:12.174Z,13.52
2023-04-09T22:07:38.704Z,11.60
2023-04-09T22:10:05.638Z,11.98
2023-04-09T22:12:32.879Z,12.27
2023-04-09T22:14:59.216Z,13.68
2023-04-09T22:17:25.737Z,12.25
2023-04-09T22:19:52.096Z,12.32
2023-04-09T22:22:18.426Z,13.63
2023-04-09T22:24:44.710Z,15.27
2023-04-09T22:27:11.030Z,14.63
2023-04-09T22:29:37.338Z,13.52
2023-04-09T22:32:03.819Z,13.20
2023-04-09T22:34:30.191Z,14.73
2023-04-09T22:36:56.536Z,14.73
2023-04-09T22:39:22.900Z,13.07
2023-04-09T22:41:49.240Z,12.40
2023-04-09T22:44:15.656Z,13.07
2023-04-09T22:46:42.049Z,13.73
2023-04-09T22:49:09.193Z,13.23
2023-04-09T22:51:35.664Z,11.55
2023-04-09T22:54:02.398Z,14.70
2023-04-09T22:56:30.085Z,13.23
2023-04-09T22:58:56.504Z,12.25
2023-04-09T23:01:22.982Z,13.00
2023-04-09T23:03:51.648Z,11.75
2023-04-09T23:06:27.587Z,13.80
2023-04-09T23:09:11.002Z,11.77
2023-04-09T23:11:37.576Z,13.70
2023-04-09T23:14:15.085Z,13.00
2023-04-09T23:16:41.693Z,12.75
2023-04-09T23:19:08.087Z,13.48
2023-04-09T23:21:34.565Z,11.73
2023-04-09T23:24:00.841Z,10.80
2023-04-09T23:26:27.198Z,12.10
2023-04-09T23:28:54.120Z,11.48
2023-04-09T23:31:20.691Z,11.75
2023-04-09T23:33:47.875Z,11.20
2023-04-09T23:36:14.265Z,10.77
2023-04-09T23:38:40.577Z,12.60
2023-04-09T23:41:07.019Z,11.10
2023-04-09T23:43:33.344Z,11.52
2023-04-09T23:45:59.678Z,10.93
2023-04-09T23:48:26.024Z,10.57
2023-04-09T23:50:52.359Z,10.63
2023-04-09T23:53:18.618Z,11.07
2023-04-09T23:55:45.038Z,12.13
2023-04-09T23:58:11.374Z,12.43
